Nearby METAR Reports

 

EIDW - Dublin Airport, Ireland
Distance from station: ENE 79km
Updated: 15/01/2021 23:00
Light rain, Mostly cloudy
Light rain, Mostly cloudy
 Wind from SSE
Wind: SSE 26 km/h
Temperature: 9°C
Wind Chill: 6°C
Dew Point: 7°C
Humidity: 87%
Barometer: 1014 hPa
Summary: Light rain
Clouds: Mostly cloudy
Visibility: 10 km
Cloud details: Few Clouds 457 m
Partly cloudy 914 m
Mostly cloudy 1219 m
2021/01/15 23:00 EIDW 152300Z 16014KT 9999 -RA FEW015 SCT030 BKN040 09/07 Q1014 NOSIG
EIME - Casement (mil), Ireland
Distance from station: ENE 62km
Updated: 15/01/2021 23:00
Light rain, Mostly cloudy
Light rain, Mostly cloudy
 Wind from S
Wind: S 54 km/h, Gust: 81 km/h
Temperature: 9°C
Wind Chill: 4°C
Dew Point: 7°C
Humidity: 87%
Barometer: 1012 hPa
Summary: Light rain
Clouds: Mostly cloudy
Visibility: 10 km
Cloud details: Few Clouds 366 m
Mostly cloudy 1829 m
2021/01/15 23:00 EIME 152300Z 19029G44KT 9999 -RA FEW012 BKN060 09/07 Q1012
EIWF - Waterford Arpt, Ireland
Distance from station: S 111km
Updated: 15/01/2021 20:30
NOT Current
Light rain, Mostly cloudy
Light rain, Mostly cloudy
 Wind from S
Wind: S 28 km/h
Temperature: 8°C
Wind Chill: 4°C
Dew Point: 8°C
Humidity: 100%
Barometer: 1019 hPa
Summary: Light rain
Clouds: Mostly cloudy
Visibility: 4 km
Cloud details: Mostly cloudy 91 m
2021/01/15 20:30 EIWF 152030Z 17015KT 4000 -RA BKN003 08/08 Q1019 R21/1/////
 
EINN - Shannon Airport, Ireland
Distance from station: WSW 117km
Updated: 15/01/2021 23:00
Light rain, Mostly cloudy
Light rain, Mostly cloudy
 Wind from S
Wind: S 22 km/h
Temperature: 10°C
Wind Chill: 7°C
Dew Point: 10°C
Humidity: 100%
Barometer: 1011 hPa
Summary: Light rain
Clouds: Mostly cloudy
Visibility: 6 km
Cloud details: Few Clouds 335 m
Mostly cloudy 488 m
2021/01/15 23:00 EINN 152300Z 17012KT 6000 -RA FEW011 BKN016 10/10 Q1011 NOSIG
EIKN - Connaught Apt, Ireland
Distance from station: NW 127km
Updated: 15/01/2021 11:00
NOT Current
Mostly cloudy
Mostly cloudy
 Wind from SSE
Wind: SSE 15 km/h
Temperature: 2°C
Wind Chill: -2°C
Dew Point: 2°C
Humidity: 100%
Barometer: 1023 hPa
Clouds: Mostly cloudy
Visibility: 10 km
Cloud details: Few Clouds 91 m
Partly cloudy 823 m
Mostly cloudy 2438 m
2021/01/15 11:00 EIKN 151100Z 15008KT 9999 FEW003 SCT027 BKN080 02/02 Q1023 NOSIG
EISG - Sligo Arpt, Ireland
Distance from station: NNW 148km
Updated: 15/01/2021 17:00
NOT Current
Overcast
Overcast
 Wind from SE
Wind: SE 33 km/h, Gust: 61 km/h
Temperature: 8°C
Wind Chill: 3°C
Dew Point: 6°C
Humidity: 87%
Barometer: 1014 hPa
Clouds: Overcast
Visibility: 10 km
Cloud details: Overcast 518 m
2021/01/15 17:00 EISG 151700Z 14018G33KT 110V170 9999 OVC017 08/06 Q1014
 
EICK - Cork Arpt/Corcai, Ireland
Distance from station: SSW 165km
Updated: 15/01/2021 23:00
Light rain, Mostly cloudy
Light rain, Mostly cloudy
 Wind from SW
Wind: SW 33 km/h
Temperature: 10°C
Wind Chill: 6°C
Dew Point: 10°C
Humidity: 100%
Barometer: 1014 hPa
Summary: Light rain
Clouds: Mostly cloudy
Visibility: 3 km
Cloud details: Mostly cloudy 61 m
Mostly cloudy 91 m
2021/01/15 23:00 EICK 152300Z 22018KT 2500 -RA BKN002 BKN003 10/10 Q1014 NOSIG
EGAA - Belfast/Aldergro, United Kingdom
Distance from station: NNE 179km
Updated: 15/01/2021 22:50
Rain, Overcast
Rain, Overcast
 Wind from SSE
Wind: SSE 30 km/h, Gust: 50 km/h
Temperature: 7°C
Wind Chill: 3°C
Dew Point: 6°C
Humidity: 93%
Barometer: 1012 hPa
Summary: Rain
Clouds: Overcast
Visibility: 5 km
Cloud details: Partly cloudy 427 m
Mostly cloudy 549 m
Overcast 1006 m
2021/01/15 22:50 EGAA 152250Z 15016G27KT 4500 RA SCT014 BKN018 OVC033 07/06 Q1012
EIKY - Kerry Arpt, Ireland
Distance from station: SW 182km
Updated: 15/01/2021 19:30
NOT Current
Rain, Overcast
Rain, Overcast
 Wind from S
Wind: S 28 km/h
Temperature: 11°C
Dew Point: 9°C
Humidity: 88%
Barometer: 1014 hPa
Summary: Rain
Clouds: Overcast
Visibility: 10 km
Cloud details: Overcast 1036 m
2021/01/15 19:30 EIKY 151930Z 18015KT 9999 RA OVC034 11/09 Q1014
 
EGAC - Belfast Harbour, United Kingdom
Distance from station: NNE 188km
Updated: 15/01/2021 22:50
Light rain, Overcast
Light rain, Overcast
 Wind from S
Wind: S 39 km/h, Gust: 57 km/h
Temperature: 8°C
Wind Chill: 3°C
Dew Point: 7°C
Humidity: 93%
Barometer: 1013 hPa
Summary: Light rain
Clouds: Overcast
Visibility: 6 km
Cloud details: Mostly cloudy 335 m
Overcast 1036 m
2021/01/15 22:50 EGAC 152250Z AUTO 17021G31KT 6000 -RA BKN011/// OVC034/// 08/07 Q1013
EGOV - Valley Raf, United Kingdom
Distance from station: E 188km
Updated: 15/01/2021 22:50
Light rain, Mostly cloudy
Light rain, Mostly cloudy
 Wind from SSE
Wind: SSE 50 km/h
Temperature: 6°C
Wind Chill: 0°C
Dew Point: 4°C
Humidity: 87%
Barometer: 1019 hPa
Summary: Light rain
Clouds: Mostly cloudy
Visibility: 4 km
Cloud details: Few Clouds 396 m
Mostly cloudy 488 m
2021/01/15 22:50 EGOV 152250Z AUTO 16027KT 4100 -RA FEW013/// BKN016/// 06/04 Q1019
EGNS - Isle Of Man/Rona, United Kingdom
Distance from station: ENE 207km
Updated: 15/01/2021 22:50
Rain, Overcast
Rain, Overcast
 Wind from S
Wind: S 46 km/h
Temperature: 6°C
Wind Chill: 1°C
Dew Point: 5°C
Humidity: 93%
Barometer: 1018 hPa
Summary: Rain
Clouds: Overcast
Visibility: 5 km
Cloud details: Overcast 366 m
2021/01/15 22:50 EGNS 152250Z 17025KT 5000 RA OVC012 06/05 Q1018